Osceola, Indiana
Current Conditions -  °F | °C
As of 10:50 AM on Friday 21 Nov 2014 (Local Time) from KEKM Reporting Station
Clear Clear  
Wind Chill: -4°   Ceiling: Unl
Heat Index: -4°   Visibility: 10mi
Dew Point: -11°   Wind: 3mph
Humidity: 59%   Direction: 230°SW
Pressure: 30.48"   Gusts: NA
Location:  41.67°N, 86.08°W
Report Text: KEKM 211550Z 23003KT 10SM CLR M04/M11 A3048
Loading
Personal Weather Stations






























Interactive Weather Map New forecast layout! Learn more

10-Day Weather Forecast

Advertisements
Track Severe Weather on mobile